Time;durP1;ratioP1;P1;durP2;ratioP2;P2;SDS_P1;SDS_P2;PMS_P1;PMS_P2;Temp;Humidity;BMP_temperature;BMP_pressure;BME280_temperature;BME280_humidity;BME280_pressure;Samples;Min_cycle;Max_cycle;Signal;HPM_P1;HPM_P2
2023/09/29 00:00:36;;;;;;;27.10;16.73;;;;;;;17.34;98.24;101046.69;5054274;28;20048;-72
2023/09/29 00:03:06;;;;;;;17.38;15.32;;;;;;;17.32;98.96;101042.44;5055546;28;20525;-73
2023/09/29 00:05:35;;;;;;;23.80;17.50;;;;;;;17.32;100.00;101045.94;5034877;28;20494;-70
2023/09/29 00:08:03;;;;;;;22.17;16.05;;;;;;;17.30;99.71;101039.91;5069320;28;20119;-83
2023/09/29 00:10:32;;;;;;;18.73;15.50;;;;;;;17.27;99.69;101041.97;5073978;28;20074;-78
2023/09/29 00:13:05;;;;;;;23.85;16.80;;;;;;;17.23;100.00;101046.69;5052370;28;20399;-77
2023/09/29 00:15:34;;;;;;;16.90;15.15;;;;;;;17.19;100.00;101048.72;5062882;28;20549;-79
2023/09/29 00:18:02;;;;;;;19.85;15.43;;;;;;;17.17;100.00;101042.69;5045818;28;20571;-76
2023/09/29 00:20:32;;;;;;;18.73;15.32;;;;;;;17.16;100.00;101037.50;5045403;28;20049;-72
2023/09/29 00:23:00;;;;;;;19.17;13.95;;;;;;;17.12;100.00;101038.72;5063634;28;20435;-72
2023/09/29 00:25:29;;;;;;;24.33;16.98;;;;;;;17.10;100.00;101041.50;5032326;28;20055;-75
2023/09/29 00:27:57;;;;;;;19.88;15.52;;;;;;;17.10;100.00;101037.97;5031653;28;20052;-71
2023/09/29 00:30:25;;;;;;;18.75;15.75;;;;;;;17.12;100.00;101033.41;5028712;28;20094;-72
2023/09/29 00:32:53;;;;;;;17.80;15.93;;;;;;;17.13;100.00;101043.06;5045852;28;20073;-71
2023/09/29 00:35:27;;;;;;;18.73;15.77;;;;;;;17.12;100.00;101034.25;5045036;28;20048;-71
2023/09/29 00:37:58;;;;;;;24.20;15.95;;;;;;;17.08;100.00;101035.47;5042597;28;20521;-72
2023/09/29 00:40:26;;;;;;;21.27;16.90;;;;;;;17.08;100.00;101035.47;5047542;28;20145;-71
2023/09/29 00:42:54;;;;;;;22.63;16.10;;;;;;;17.04;100.00;101034.00;5048652;28;20102;-71
2023/09/29 00:45:26;;;;;;;21.73;17.38;;;;;;;17.02;100.00;101037.75;5060471;28;20076;-71
2023/09/29 00:47:57;;;;;;;22.45;15.32;;;;;;;16.99;100.00;101032.69;5047615;28;20056;-71
2023/09/29 00:50:27;;;;;;;17.70;15.85;;;;;;;16.98;100.00;101025.69;5046290;28;20151;-70
2023/09/29 00:53:05;;;;;;;27.10;17.27;;;;;;;16.97;100.00;101024.81;5062174;28;20048;-70
2023/09/29 00:55:35;;;;;;;23.67;16.52;;;;;;;16.97;100.00;101030.13;5031011;28;20431;-73
2023/09/29 00:58:06;;;;;;;26.10;17.55;;;;;;;16.97;100.00;101024.81;5015521;28;20626;-77
2023/09/29 01:00:37;;;;;;;22.35;17.02;;;;;;;16.97;100.00;101032.78;5028219;28;20184;-72
2023/09/29 01:03:06;;;;;;;21.88;16.10;;;;;;;16.94;100.00;101025.91;5044532;28;20151;-71
2023/09/29 01:05:39;;;;;;;21.27;16.60;;;;;;;16.95;100.00;101016.97;5047645;28;20566;-71
2023/09/29 01:08:09;;;;;;;20.23;16.67;;;;;;;16.95;100.00;101016.97;5034532;28;20045;-71
2023/09/29 01:10:36;;;;;;;18.25;15.02;;;;;;;16.95;100.00;101008.97;5062370;28;20059;-71
2023/09/29 01:13:07;;;;;;;18.15;14.82;;;;;;;16.94;100.00;101011.78;5051139;28;20116;-78
2023/09/29 01:15:36;;;;;;;21.98;16.45;;;;;;;16.94;100.00;101009.97;5047576;28;20060;-77
2023/09/29 01:18:06;;;;;;;18.13;14.80;;;;;;;16.94;100.00;101001.13;5014744;28;20048;-73
2023/09/29 01:21:30;;;;;;;18.58;15.88;;;;;;;16.91;100.00;101004.88;5044471;28;20114;-79
2023/09/29 01:23:58;;;;;;;17.17;15.45;;;;;;;16.90;100.00;101003.19;5046650;28;20570;-77
2023/09/29 01:26:26;;;;;;;23.38;16.42;;;;;;;16.89;100.00;101012.16;5069636;28;20053;-81
2023/09/29 01:28:58;;;;;;;20.30;15.32;;;;;;;16.90;100.00;101013.00;5068104;28;20048;-79
2023/09/29 01:31:26;;;;;;;21.48;15.63;;;;;;;16.89;100.00;101011.31;5031531;28;20119;-76
2023/09/29 01:33:54;;;;;;;20.90;15.57;;;;;;;16.87;100.00;101005.25;5017536;28;20044;-71
2023/09/29 01:36:21;;;;;;;21.52;15.60;;;;;;;16.84;100.00;101005.47;5059686;28;20560;-70
2023/09/29 01:38:49;;;;;;;20.67;16.85;;;;;;;16.84;100.00;101011.66;5066992;28;20052;-80
2023/09/29 01:41:18;;;;;;;25.55;15.93;;;;;;;16.82;100.00;101018.91;5070916;28;20024;-80
2023/09/29 01:43:46;;;;;;;18.20;15.63;;;;;;;16.79;100.00;101015.63;5033825;28;20040;-75
2023/09/29 01:46:15;;;;;;;21.50;16.00;;;;;;;16.75;100.00;101014.19;5046913;28;20040;-75
2023/09/29 01:48:44;;;;;;;18.73;15.13;;;;;;;16.70;100.00;101011.84;5064311;28;20503;-76
2023/09/29 01:51:12;;;;;;;17.70;15.45;;;;;;;16.69;100.00;101008.34;5048651;28;20049;-76
2023/09/29 01:53:40;;;;;;;17.95;15.70;;;;;;;16.68;100.00;101009.31;5032053;28;20106;-76
2023/09/29 01:56:09;;;;;;;18.52;14.98;;;;;;;16.68;100.00;101003.16;5033574;28;20492;-76
2023/09/29 01:58:36;;;;;;;24.35;15.50;;;;;;;16.67;100.00;101002.31;5046541;28;21296;-73
2023/09/29 02:01:07;;;;;;;17.77;15.95;;;;;;;16.65;100.00;101008.72;5029808;28;20052;-73
2023/09/29 02:03:35;;;;;;;20.25;15.82;;;;;;;16.61;100.00;101000.13;5040737;28;20127;-74
2023/09/29 02:06:07;;;;;;;16.75;14.95;;;;;;;16.59;100.00;101003.88;5045450;28;20056;-73
2023/09/29 02:08:34;;;;;;;21.35;16.05;;;;;;;16.56;100.00;101001.44;5032284;28;20044;-72
2023/09/29 02:11:02;;;;;;;18.77;15.25;;;;;;;16.53;100.00;101005.22;5047823;28;20052;-73
2023/09/29 02:13:31;;;;;;;19.65;14.75;;;;;;;16.50;100.00;101001.94;5049467;28;20057;-78
2023/09/29 02:16:00;;;;;;;20.20;15.75;;;;;;;16.48;100.00;101003.84;5032333;28;20076;-77
2023/09/29 02:18:30;;;;;;;17.52;14.60;;;;;;;16.46;100.00;101002.16;5032419;28;20110;-71
2023/09/29 02:20:58;;;;;;;19.95;14.10;;;;;;;16.43;100.00;100990.94;5047204;28;20454;-71
2023/09/29 02:23:25;;;;;;;17.90;15.38;;;;;;;16.40;100.00;100999.16;5031729;28;20439;-71
2023/09/29 02:25:54;;;;;;;18.30;14.93;;;;;;;16.38;100.00;100998.41;5031511;28;20476;-71
2023/09/29 02:28:22;;;;;;;18.10;14.90;;;;;;;16.35;100.00;100990.69;5043987;28;20124;-71
2023/09/29 02:30:50;;;;;;;18.23;16.20;;;;;;;16.34;100.00;100995.13;5060422;28;20562;-70
2023/09/29 02:33:18;;;;;;;21.73;16.15;;;;;;;16.30;100.00;100988.41;5065809;28;20051;-70
2023/09/29 02:35:47;;;;;;;18.42;14.95;;;;;;;16.30;100.00;100992.84;5043273;28;20067;-70
2023/09/29 02:38:15;;;;;;;19.83;14.98;;;;;;;16.25;100.00;100992.34;5049156;28;20241;-71
2023/09/29 02:40:43;;;;;;;22.52;15.77;;;;;;;16.23;100.00;100986.31;5047984;28;20051;-70
2023/09/29 02:43:10;;;;;;;19.05;15.80;;;;;;;16.17;100.00;100987.66;5031338;28;20057;-73
2023/09/29 02:45:40;;;;;;;21.30;15.77;;;;;;;16.15;100.00;100990.41;5006821;28;20107;-73
2023/09/29 02:48:07;;;;;;;17.58;15.25;;;;;;;16.15;100.00;100982.44;5066160;28;20041;-74
2023/09/29 02:50:36;;;;;;;17.15;15.20;;;;;;;16.16;100.00;100984.13;5043853;28;20052;-68
2023/09/29 02:53:05;;;;;;;24.95;16.83;;;;;;;16.16;100.00;100975.31;5043045;28;20049;-70
2023/09/29 02:55:33;;;;;;;22.25;15.30;;;;;;;16.16;100.00;100978.81;5065400;28;20084;-71
2023/09/29 02:58:04;;;;;;;21.80;16.95;;;;;;;16.16;100.00;100973.50;5030613;28;20090;-71
2023/09/29 03:00:32;;;;;;;17.55;15.75;;;;;;;16.16;100.00;100978.81;5045878;28;20040;-71
2023/09/29 03:02:59;;;;;;;16.67;14.98;;;;;;;16.13;100.00;100976.41;5046195;28;20399;-70
2023/09/29 03:05:27;;;;;;;20.73;16.00;;;;;;;16.11;100.00;100977.47;5030562;28;20123;-69
2023/09/29 03:07:57;;;;;;;24.30;15.75;;;;;;;16.08;100.00;100967.94;5046845;28;20064;-71
2023/09/29 03:10:28;;;;;;;16.77;15.07;;;;;;;16.05;100.00;100968.16;5031585;28;20094;-69
2023/09/29 03:12:58;;;;;;;20.40;17.50;;;;;;;16.05;100.00;100968.16;5028857;28;20450;-70
2023/09/29 03:15:26;;;;;;;18.52;16.58;;;;;;;16.01;100.00;100968.53;5032863;28;20661;-70
2023/09/29 03:17:55;;;;;;;22.00;15.73;;;;;;;16.00;100.00;100967.69;5030270;28;20049;-71
2023/09/29 03:20:26;;;;;;;19.80;16.23;;;;;;;15.95;100.00;100975.16;5030441;28;20076;-70
2023/09/29 03:22:58;;;;;;;20.40;17.35;;;;;;;15.89;100.00;100968.47;5052331;28;20049;-70
2023/09/29 03:25:26;;;;;;;17.73;15.63;;;;;;;15.87;100.00;100970.41;5062765;28;20045;-70
2023/09/29 03:27:54;;;;;;;16.58;14.82;;;;;;;15.85;100.00;100972.34;5034410;28;20048;-70
2023/09/29 03:30:21;;;;;;;20.60;17.05;;;;;;;15.84;100.00;100975.94;5063549;28;20057;-72
2023/09/29 03:32:49;;;;;;;18.02;15.77;;;;;;;15.82;100.00;100977.03;5065236;28;20084;-71
2023/09/29 03:35:17;;;;;;;19.00;15.20;;;;;;;15.79;100.00;100979.91;5031410;28;20044;-72
2023/09/29 03:37:45;;;;;;;20.10;16.63;;;;;;;15.78;100.00;100980.88;5063401;28;20056;-77
2023/09/29 03:40:14;;;;;;;20.73;16.48;;;;;;;15.72;100.00;100984.84;5048160;28;20180;-70
2023/09/29 03:42:41;;;;;;;21.73;16.48;;;;;;;15.72;100.00;100978.69;5039218;28;20107;-70
2023/09/29 03:45:11;;;;;;;28.67;16.35;;;;;;;15.72;100.00;100973.41;5041606;28;20068;-70
2023/09/29 03:47:39;;;;;;;20.25;16.90;;;;;;;15.70;100.00;100971.69;5041100;28;20040;-69
2023/09/29 03:50:11;;;;;;;18.20;15.50;;;;;;;15.72;100.00;100968.09;5025282;28;20102;-73
2023/09/29 03:52:40;;;;;;;18.05;16.02;;;;;;;15.75;100.00;100960.72;5032348;28;20072;-72
2023/09/29 03:58:38;;;;;;;18.08;15.60;;;;;;;15.75;100.00;100959.88;5043808;28;20095;-72
2023/09/29 04:01:06;;;;;;;18.77;15.68;;;;;;;15.74;100.00;100974.13;5067160;28;20068;-74
2023/09/29 04:03:34;;;;;;;17.98;15.25;;;;;;;15.69;100.00;100972.66;5030410;28;20056;-74
2023/09/29 04:06:01;;;;;;;17.92;15.77;;;;;;;15.65;100.00;100968.53;5067978;28;20053;-72
2023/09/29 04:08:29;;;;;;;19.77;15.02;;;;;;;15.63;100.00;100966.94;5014809;28;20107;-73
2023/09/29 04:10:57;;;;;;;19.75;16.23;;;;;;;15.62;100.00;100967.88;5050217;28;20124;-71
2023/09/29 04:13:24;;;;;;;19.35;16.85;;;;;;;15.62;100.00;100967.88;5069216;28;20048;-72
2023/09/29 04:15:51;;;;;;;19.63;15.73;;;;;;;15.61;100.00;100975.00;5027933;28;20098;-72
2023/09/29 04:18:19;;;;;;;18.83;14.85;;;;;;;15.60;100.00;100972.47;5046857;28;20045;-72
2023/09/29 04:20:46;;;;;;;17.67;15.68;;;;;;;15.59;100.00;100978.72;5064032;28;20083;-72
2023/09/29 04:23:14;;;;;;;17.63;15.50;;;;;;;15.56;100.00;100976.28;5049808;28;21119;-72
2023/09/29 04:25:41;;;;;;;17.30;14.57;;;;;;;15.52;100.00;100974.81;5032140;28;20059;-72
2023/09/29 04:28:09;;;;;;;19.70;15.80;;;;;;;15.48;100.00;100973.34;5030178;28;20052;-71
2023/09/29 04:30:36;;;;;;;16.45;14.70;;;;;;;15.42;100.00;100975.50;5026728;28;20130;-72
2023/09/29 04:33:04;;;;;;;22.40;16.17;;;;;;;15.38;100.00;100976.69;5060467;28;20114;-72
2023/09/29 04:35:32;;;;;;;17.17;15.35;;;;;;;15.36;100.00;100973.31;5054300;28;20052;-72
2023/09/29 04:37:59;;;;;;;17.15;15.40;;;;;;;15.37;100.00;100979.47;5024729;28;20411;-71
2023/09/29 04:40:27;;;;;;;20.40;15.20;;;;;;;15.37;100.00;100982.97;5021329;28;20044;-67
2023/09/29 04:42:55;;;;;;;19.45;15.23;;;;;;;15.36;100.00;100975.13;5062719;28;20063;-68
2023/09/29 04:45:22;;;;;;;25.90;15.88;;;;;;;15.33;100.00;100973.53;5029583;28;20060;-67
2023/09/29 04:47:51;;;;;;;18.10;16.20;;;;;;;15.33;100.00;100972.69;5027910;28;20147;-69
2023/09/29 04:50:19;;;;;;;17.58;14.95;;;;;;;15.32;100.00;100971.00;5053057;28;20067;-67
2023/09/29 04:52:46;;;;;;;21.27;16.00;;;;;;;15.33;100.00;100973.53;5043826;28;20075;-68
2023/09/29 04:55:13;;;;;;;20.25;15.77;;;;;;;15.35;100.00;100970.75;5062694;28;20635;-69
2023/09/29 04:57:41;;;;;;;18.75;15.85;;;;;;;15.36;100.00;100961.88;5056129;28;20106;-68
2023/09/29 05:00:09;;;;;;;17.42;15.60;;;;;;;15.37;100.00;100959.09;5045737;28;20045;-69
2023/09/29 05:02:36;;;;;;;17.17;14.63;;;;;;;15.40;100.00;100966.84;5064112;28;20064;-68
2023/09/29 05:05:04;;;;;;;19.30;14.63;;;;;;;15.43;100.00;100963.09;5044745;28;20139;-69
2023/09/29 05:07:32;;;;;;;19.73;15.15;;;;;;;15.44;100.00;100956.81;5060074;28;20068;-69
2023/09/29 05:09:59;;;;;;;21.92;16.02;;;;;;;15.46;100.00;100960.22;5062407;28;20224;-67
2023/09/29 05:12:28;;;;;;;19.02;15.88;;;;;;;15.47;100.00;100956.59;5065424;28;20052;-69
2023/09/29 05:14:57;;;;;;;19.25;15.23;;;;;;;15.48;100.00;100952.13;5064743;28;20052;-66
2023/09/29 05:17:34;;;;;;;23.00;16.15;;;;;;;15.50;100.00;100969.66;5061135;28;20064;-67
2023/09/29 05:20:18;;;;;;;21.55;14.93;;;;;;;15.53;100.00;100987.13;5066505;28;20061;-68
2023/09/29 05:22:46;;;;;;;21.38;15.10;;;;;;;15.40;100.00;100965.97;5040467;28;20060;-70
2023/09/29 05:25:13;;;;;;;22.48;14.98;;;;;;;15.41;100.00;100968.50;5017961;28;20044;-69
2023/09/29 05:27:41;;;;;;;22.50;14.02;;;;;;;15.43;100.00;100979.00;5026455;28;20060;-70
2023/09/29 05:30:09;;;;;;;22.45;14.43;;;;;;;15.48;100.00;100982.16;5005541;28;20049;-68
2023/09/29 05:32:36;;;;;;;17.42;13.10;;;;;;;15.56;100.00;100986.91;5030457;28;20041;-68
2023/09/29 05:35:05;;;;;;;20.67;15.40;;;;;;;15.55;100.00;100980.75;5020412;28;20048;-69
2023/09/29 05:37:34;;;;;;;19.95;13.35;;;;;;;15.59;100.00;100978.72;5066424;28;20102;-68
2023/09/29 05:40:03;;;;;;;20.35;15.20;;;;;;;15.67;100.00;100973.75;5041001;28;20107;-67
2023/09/29 05:42:31;;;;;;;18.10;13.85;;;;;;;15.77;100.00;100972.06;5025286;28;20049;-68
2023/09/29 05:45:18;;;;;;;17.38;14.50;;;;;;;15.85;100.00;100967.03;5026594;28;20052;-70
2023/09/29 05:47:48;;;;;;;18.55;14.95;;;;;;;15.92;99.05;100968.25;5046838;28;20075;-69
2023/09/29 05:50:19;;;;;;;30.27;14.55;;;;;;;15.98;98.58;100971.41;5049986;28;20076;-68
2023/09/29 05:52:47;;;;;;;15.80;13.93;;;;;;;16.08;98.01;100983.03;5048917;28;20037;-68
2023/09/29 05:55:35;;;;;;;18.23;14.45;;;;;;;16.16;97.44;100975.31;5052151;28;20035;-68
2023/09/29 05:58:04;;;;;;;25.90;13.93;;;;;;;16.25;97.02;100971.94;5043569;28;20082;-69
2023/09/29 06:00:33;;;;;;;20.88;13.23;;;;;;;16.31;95.69;100976.81;5047418;28;20047;-70
2023/09/29 06:03:00;;;;;;;16.02;13.13;;;;;;;16.40;95.20;100975.25;5042002;28;20153;-69
2023/09/29 06:05:29;;;;;;;20.10;13.40;;;;;;;16.41;94.48;100984.91;5062196;28;20086;-67
2023/09/29 06:07:56;;;;;;;16.40;13.95;;;;;;;16.40;94.48;100992.03;5046678;28;20052;-67
2023/09/29 06:10:25;;;;;;;20.60;12.82;;;;;;;16.48;94.10;100986.13;5066153;28;20040;-68
2023/09/29 06:12:53;;;;;;;16.65;13.82;;;;;;;16.61;93.55;100991.31;5033050;28;20122;-70
2023/09/29 06:15:21;;;;;;;18.92;12.82;;;;;;;16.65;93.05;101004.22;5042668;28;20118;-68
2023/09/29 06:17:49;;;;;;;18.38;12.40;;;;;;;16.67;92.35;100990.84;5064816;28;20075;-69
2023/09/29 06:20:18;;;;;;;23.20;14.02;;;;;;;16.75;91.87;100996.44;5048491;28;20132;-69
2023/09/29 06:22:46;;;;;;;17.48;12.07;;;;;;;16.80;91.41;100996.06;5047752;28;20068;-69
2023/09/29 06:25:13;;;;;;;18.10;12.68;;;;;;;16.81;90.68;100992.44;5031686;28;20139;-69
2023/09/29 06:27:41;;;;;;;19.25;12.35;;;;;;;16.82;90.66;100996.78;5059554;28;20045;-68
2023/09/29 06:30:08;;;;;;;14.57;11.40;;;;;;;16.76;90.62;100994.63;5031678;28;20072;-69
2023/09/29 06:32:36;;;;;;;19.13;11.15;;;;;;;16.83;90.25;100994.00;5062729;28;20510;-69
2023/09/29 06:35:03;;;;;;;14.93;11.93;;;;;;;16.92;89.83;100987.09;5046699;28;20060;-69
2023/09/29 06:37:31;;;;;;;14.32;10.57;;;;;;;17.03;89.59;100986.25;5064405;28;20080;-69
2023/09/29 06:39:59;;;;;;;13.38;11.82;;;;;;;17.06;88.47;100988.66;5046454;28;20095;-70
2023/09/29 06:42:26;;;;;;;18.20;11.52;;;;;;;17.04;88.20;100994.09;5065279;28;20087;-69
2023/09/29 06:44:53;;;;;;;21.30;12.25;;;;;;;17.05;88.21;100985.16;5065111;28;20080;-69
2023/09/29 06:47:21;;;;;;;14.52;11.23;;;;;;;17.10;88.61;100992.75;5065367;28;20041;-67
2023/09/29 06:49:48;;;;;;;16.90;12.15;;;;;;;17.17;87.77;100993.97;5044704;28;20052;-68
2023/09/29 06:52:16;;;;;;;14.00;11.68;;;;;;;17.18;87.78;101003.63;5047658;28;20106;-68
2023/09/29 06:54:43;;;;;;;20.00;11.90;;;;;;;17.31;87.24;100995.50;5045683;28;20546;-67
2023/09/29 06:57:10;;;;;;;15.20;11.65;;;;;;;17.47;86.36;101003.91;5049055;28;20052;-68
2023/09/29 06:59:38;;;;;;;14.75;11.27;;;;;;;17.58;86.25;100998.56;5046452;28;20459;-69
2023/09/29 07:02:05;;;;;;;22.23;12.30;;;;;;;17.62;85.21;101000.00;5056346;28;20044;-69
2023/09/29 07:04:33;;;;;;;18.02;12.27;;;;;;;17.70;84.23;101002.91;5045605;28;20071;-69
2023/09/29 07:07:01;;;;;;;14.57;10.43;;;;;;;17.88;84.62;101005.88;5036461;28;20057;-68
2023/09/29 07:09:28;;;;;;;14.68;10.52;;;;;;;18.11;83.67;101000.44;5055036;28;20045;-69
2023/09/29 07:11:55;;;;;;;17.75;12.52;;;;;;;18.23;82.55;101002.03;5040487;28;20083;-68
2023/09/29 07:14:23;;;;;;;20.33;10.68;;;;;;;18.37;81.61;100996.41;5047897;28;20363;-68
2023/09/29 07:16:52;;;;;;;17.15;10.38;;;;;;;18.37;81.32;101011.50;5048052;28;20133;-69
2023/09/29 07:19:20;;;;;;;24.10;12.00;;;;;;;18.51;80.39;101011.19;5044679;28;20061;-68
2023/09/29 07:21:47;;;;;;;20.52;10.85;;;;;;;18.36;80.65;101012.50;5043039;28;20069;-70
2023/09/29 07:24:14;;;;;;;12.85;10.48;;;;;;;18.52;81.11;101017.38;5044539;28;20211;-68
2023/09/29 07:26:42;;;;;;;17.25;9.68;;;;;;;18.60;80.38;101015.75;5047392;28;20053;-69
2023/09/29 07:29:11;;;;;;;17.10;10.57;;;;;;;18.65;79.85;101015.34;5028664;28;20078;-69
2023/09/29 07:31:46;;;;;;;20.55;9.93;;;;;;;18.96;78.93;101006.38;5067163;28;20061;-68
2023/09/29 07:34:17;;;;;;;20.30;10.73;;;;;;;19.00;77.71;101004.25;5025719;28;20103;-68
2023/09/29 07:36:45;;;;;;;17.08;10.57;;;;;;;19.07;77.63;101008.09;5046510;28;20129;-67
2023/09/29 07:39:17;;;;;;;13.68;9.07;;;;;;;19.30;77.58;101002.53;5049012;28;20148;-67
2023/09/29 07:41:46;;;;;;;15.25;8.98;;;;;;;19.53;76.77;101005.78;5047687;28;20687;-68
2023/09/29 07:44:13;;;;;;;17.60;10.07;;;;;;;19.56;75.54;101006.34;5028355;28;20110;-68
2023/09/29 07:46:41;;;;;;;15.60;9.57;;;;;;;19.70;74.95;101013.16;5051737;28;20091;-68
2023/09/29 07:49:08;;;;;;;24.73;9.63;;;;;;;19.82;74.35;101009.34;5032075;28;20126;-68
2023/09/29 07:51:38;;;;;;;16.10;8.70;;;;;;;19.99;73.92;101018.47;5048345;28;20186;-68
2023/09/29 07:54:05;;;;;;;23.73;9.98;;;;;;;20.15;72.44;101009.88;5066601;28;20126;-68
2023/09/29 07:56:33;;;;;;;17.00;9.80;;;;;;;20.32;71.69;101011.00;5067845;28;20155;-69
2023/09/29 07:59:01;;;;;;;11.88;9.00;;;;;;;20.14;72.82;101011.72;5030025;28;20056;-69
2023/09/29 08:01:28;;;;;;;18.45;8.88;;;;;;;20.12;72.87;101015.50;5047871;28;20519;-68
2023/09/29 08:03:57;;;;;;;15.80;8.60;;;;;;;20.32;72.47;101017.19;5031464;28;20056;-66
2023/09/29 08:06:25;;;;;;;24.75;8.55;;;;;;;20.51;71.89;101012.81;5045642;28;20098;-68
2023/09/29 08:08:53;;;;;;;13.57;8.07;;;;;;;20.67;70.80;101008.53;5058653;28;20060;-68
2023/09/29 08:11:21;;;;;;;15.25;7.43;;;;;;;20.80;70.29;101005.50;5055690;28;20499;-67
2023/09/29 08:13:52;;;;;;;9.88;6.97;;;;;;;20.93;70.27;101008.69;5040830;28;20661;-67
2023/09/29 08:16:20;;;;;;;12.98;9.05;;;;;;;20.94;69.90;100998.84;5038439;28;20052;-67
2023/09/29 08:18:47;;;;;;;14.85;7.45;;;;;;;21.04;70.31;100996.13;5054951;28;20085;-68
2023/09/29 08:21:16;;;;;;;10.73;7.60;;;;;;;21.12;70.22;100997.06;5060735;28;20113;-68
2023/09/29 08:23:43;;;;;;;9.57;5.95;;;;;;;21.29;69.34;100994.53;5038941;28;20118;-67
2023/09/29 08:26:11;;;;;;;9.80;6.80;;;;;;;21.18;69.02;100996.44;5038944;28;20719;-69
2023/09/29 08:28:39;;;;;;;12.18;7.32;;;;;;;21.19;69.20;100995.44;5042785;28;20056;-68
2023/09/29 08:31:14;;;;;;;16.20;7.22;;;;;;;21.20;68.97;101005.16;5057228;28;20080;-68
2023/09/29 08:33:43;;;;;;;13.23;6.82;;;;;;;21.11;68.78;100997.19;5052787;28;20039;-68
2023/09/29 08:36:19;;;;;;;10.23;7.25;;;;;;;21.06;69.59;101007.50;5057977;28;20538;-68
2023/09/29 08:38:46;;;;;;;14.05;6.53;;;;;;;21.20;69.43;101007.81;5054156;28;20231;-68
2023/09/29 08:41:17;;;;;;;11.27;7.22;;;;;;;21.19;68.57;100998.13;5057870;28;20067;-67
2023/09/29 08:43:46;;;;;;;17.45;6.18;;;;;;;20.97;69.99;101011.91;5060260;28;20067;-67
2023/09/29 08:46:39;;;;;;;13.80;6.60;;;;;;;21.09;70.35;101009.88;5046692;28;20040;-67
2023/09/29 08:49:08;;;;;;;9.15;6.10;;;;;;;21.34;69.46;101000.31;5024573;28;20052;-68
2023/09/29 08:51:46;;;;;;;14.05;6.25;;;;;;;21.47;69.07;101001.63;5059821;28;20123;-68
2023/09/29 08:54:16;;;;;;;9.52;6.28;;;;;;;21.57;68.87;101004.25;5056878;28;20048;-67
2023/09/29 08:56:45;;;;;;;16.98;6.30;;;;;;;21.56;68.43;101002.56;5054316;28;20053;-68
2023/09/29 08:59:15;;;;;;;11.57;6.20;;;;;;;21.61;68.62;101004.78;5057423;28;20053;-68
2023/09/29 09:01:43;;;;;;;9.77;6.15;;;;;;;21.60;68.28;101011.97;5047039;28;20044;-68
2023/09/29 09:04:11;;;;;;;9.82;6.55;;;;;;;21.73;68.02;101015.13;5057803;28;20561;-66
2023/09/29 09:06:41;;;;;;;14.40;6.35;;;;;;;21.61;68.34;101026.22;5070312;28;20471;-68
2023/09/29 09:09:09;;;;;;;8.23;6.13;;;;;;;21.40;69.06;101023.84;5054162;28;20060;-68
2023/09/29 09:11:43;;;;;;;15.93;5.88;;;;;;;21.52;69.16;101027.13;5051684;28;20063;-67
2023/09/29 09:14:10;;;;;;;19.42;7.45;;;;;;;21.37;69.05;101033.00;5054284;28;20114;-68
2023/09/29 09:16:38;;;;;;;13.73;7.18;;;;;;;21.11;70.66;101037.34;5055835;28;20573;-68
2023/09/29 09:19:10;;;;;;;17.08;7.22;;;;;;;21.28;70.79;101031.19;5051155;28;20106;-67
2023/09/29 09:21:38;;;;;;;11.25;6.93;;;;;;;21.32;70.41;101024.56;5052577;28;20088;-67
2023/09/29 09:24:18;;;;;;;13.32;6.68;;;;;;;21.38;70.21;101029.31;5058336;28;20063;-68
2023/09/29 09:26:46;;;;;;;17.50;7.50;;;;;;;21.34;70.27;101024.41;5056561;28;20507;-67
2023/09/29 09:29:19;;;;;;;12.63;6.43;;;;;;;21.44;70.31;101027.91;5059769;28;21259;-67
2023/09/29 09:31:58;;;;;;;16.20;6.43;;;;;;;21.52;70.41;101029.78;5058918;28;20628;-67
2023/09/29 09:34:33;;;;;;;10.15;5.85;;;;;;;21.54;70.21;101027.81;5062113;28;20045;-67
2023/09/29 09:37:02;;;;;;;19.45;6.53;;;;;;;21.56;69.82;101028.50;5061851;28;20049;-67
2023/09/29 09:39:30;;;;;;;11.73;6.75;;;;;;;21.55;70.25;101030.34;5062642;28;20049;-67
2023/09/29 09:41:58;;;;;;;8.25;6.05;;;;;;;21.52;70.29;101029.78;5062317;28;20057;-68
2023/09/29 09:44:26;;;;;;;10.65;6.40;;;;;;;21.66;69.94;101024.78;5067667;28;20144;-68
2023/09/29 09:47:00;;;;;;;9.57;6.63;;;;;;;21.64;69.89;101036.63;5064162;28;20076;-68
2023/09/29 09:49:57;;;;;;;9.93;6.07;;;;;;;21.91;69.37;101028.50;5051698;28;20053;-65
2023/09/29 09:52:29;;;;;;;19.88;5.82;;;;;;;22.11;68.92;101022.97;5062446;28;20573;-69
2023/09/29 09:54:58;;;;;;;12.07;5.57;;;;;;;22.24;68.27;101024.31;5064074;28;20080;-68
2023/09/29 09:57:25;;;;;;;10.40;5.47;;;;;;;22.02;68.25;101026.56;5061631;28;20132;-67
2023/09/29 09:59:54;;;;;;;15.93;6.10;;;;;;;22.16;68.30;101029.59;5062967;28;20412;-67
2023/09/29 10:02:23;;;;;;;8.07;5.07;;;;;;;22.43;67.86;101036.66;5058079;28;20072;-68
2023/09/29 10:04:50;;;;;;;11.52;5.57;;;;;;;22.57;67.40;101027.19;5030478;28;20110;-68
2023/09/29 10:07:20;;;;;;;8.90;5.38;;;;;;;22.81;66.97;101025.63;5059927;28;20087;-67
2023/09/29 10:09:49;;;;;;;8.82;6.15;;;;;;;22.90;65.20;101022.84;5058614;28;20048;-68
2023/09/29 10:12:24;;;;;;;9.05;5.50;;;;;;;22.93;64.46;101027.91;5062547;28;20045;-66
2023/09/29 10:14:52;;;;;;;8.98;5.45;;;;;;;22.81;64.63;101022.97;5062800;28;20083;-68
2023/09/29 10:17:20;;;;;;;13.23;5.85;;;;;;;23.02;64.73;101036.84;5047192;28;20143;-67
2023/09/29 10:19:53;;;;;;;9.13;5.35;;;;;;;23.07;64.47;101037.22;5048431;28;20533;-64
2023/09/29 10:22:24;;;;;;;11.02;6.43;;;;;;;23.00;64.93;101018.19;5043270;28;20081;-68
2023/09/29 10:24:56;;;;;;;6.97;5.05;;;;;;;23.07;64.40;101031.00;5049767;28;20060;-69
2023/09/29 10:27:32;;;;;;;10.35;5.40;;;;;;;23.06;64.66;101035.53;5056235;28;20063;-67
2023/09/29 10:30:15;;;;;;;10.98;5.65;;;;;;;22.96;64.23;101026.75;5062233;28;20143;-67
2023/09/29 10:32:48;;;;;;;9.88;5.45;;;;;;;22.98;64.78;101033.66;5040124;28;20073;-69
2023/09/29 10:35:20;;;;;;;10.57;4.63;;;;;;;23.08;64.40;101032.66;5042049;28;20591;-67
2023/09/29 10:37:54;;;;;;;7.97;5.28;;;;;;;23.09;63.93;101026.28;5061354;28;20110;-68
2023/09/29 10:40:28;;;;;;;12.52;5.88;;;;;;;23.14;63.90;101032.00;5029004;28;20090;-67
2023/09/29 10:42:56;;;;;;;14.13;5.93;;;;;;;22.99;63.88;101035.31;5060864;28;20556;-68
2023/09/29 10:45:31;;;;;;;13.20;5.68;;;;;;;23.19;63.78;101033.22;5064139;28;20083;-68
2023/09/29 10:48:06;;;;;;;13.35;5.32;;;;;;;23.44;63.17;101031.44;5046143;28;20114;-67
2023/09/29 10:50:43;;;;;;;17.77;5.88;;;;;;;23.80;62.46;101033.06;5036924;28;20151;-68
2023/09/29 10:53:12;;;;;;;14.52;5.45;;;;;;;24.06;60.76;101033.75;5040628;28;20095;-68
2023/09/29 10:55:44;;;;;;;8.70;5.57;;;;;;;24.14;60.74;101033.75;5060707;28;20052;-68
2023/09/29 10:58:11;;;;;;;8.35;5.68;;;;;;;24.39;60.86;101033.75;5063547;28;20056;-68
2023/09/29 11:00:41;;;;;;;8.88;5.50;;;;;;;24.40;59.79;101038.09;5047025;28;20049;-67
2023/09/29 11:03:11;;;;;;;12.93;5.50;;;;;;;24.29;60.24;101031.19;5059600;28;20040;-68
2023/09/29 11:05:48;;;;;;;10.88;5.55;;;;;;;24.02;60.73;101021.63;5040773;28;20053;-67
2023/09/29 11:08:22;;;;;;;10.45;4.93;;;;;;;24.00;60.92;101018.25;5040968;28;20102;-66
2023/09/29 11:10:55;;;;;;;8.60;5.22;;;;;;;23.95;61.23;101021.44;5032061;28;21005;-68
2023/09/29 11:13:23;;;;;;;17.00;5.90;;;;;;;23.54;62.17;101025.91;5065078;28;20064;-68
2023/09/29 11:15:51;;;;;;;11.68;4.68;;;;;;;23.62;62.51;101023.25;5047948;28;20056;-68
2023/09/29 11:18:29;;;;;;;8.27;5.38;;;;;;;23.70;62.20;101023.31;5052719;28;20052;-69
2023/09/29 11:20:58;;;;;;;12.90;5.30;;;;;;;23.74;62.15;101016.59;5057740;28;20106;-67
2023/09/29 11:23:28;;;;;;;16.17;5.25;;;;;;;23.56;61.88;101010.50;5026040;28;20049;-68